sensor_id;sensor_type;location;lat;lon;timestamp;temperature;humidity
32506;DHT22;18955;51.224;8.482;2022-12-31T00:00:35;7.00;89.60
32506;DHT22;18955;51.224;8.482;2022-12-31T00:03:04;7.00;89.50
32506;DHT22;18955;51.224;8.482;2022-12-31T00:05:32;7.00;89.40
32506;DHT22;18955;51.224;8.482;2022-12-31T00:07:58;7.10;90.10
32506;DHT22;18955;51.224;8.482;2022-12-31T00:10:24;7.10;90.00
32506;DHT22;18955;51.224;8.482;2022-12-31T00:12:51;7.10;89.60
32506;DHT22;18955;51.224;8.482;2022-12-31T00:15:17;7.10;89.50
32506;DHT22;18955;51.224;8.482;2022-12-31T00:17:43;7.10;89.70
32506;DHT22;18955;51.224;8.482;2022-12-31T00:20:10;7.10;89.90
32506;DHT22;18955;51.224;8.482;2022-12-31T00:22:36;7.10;90.00
32506;DHT22;18955;51.224;8.482;2022-12-31T00:25:03;7.10;90.00
32506;DHT22;18955;51.224;8.482;2022-12-31T00:27:30;7.10;90.10
32506;DHT22;18955;51.224;8.482;2022-12-31T00:29:56;7.10;90.00
32506;DHT22;18955;51.224;8.482;2022-12-31T00:32:23;7.20;90.20
32506;DHT22;18955;51.224;8.482;2022-12-31T00:34:49;7.20;90.00
32506;DHT22;18955;51.224;8.482;2022-12-31T00:37:15;7.20;90.00
32506;DHT22;18955;51.224;8.482;2022-12-31T00:39:42;7.20;89.80
32506;DHT22;18955;51.224;8.482;2022-12-31T00:42:08;7.20;89.70
32506;DHT22;18955;51.224;8.482;2022-12-31T00:44:34;7.20;89.50
32506;DHT22;18955;51.224;8.482;2022-12-31T00:47:00;7.30;90.00
32506;DHT22;18955;51.224;8.482;2022-12-31T00:49:26;7.30;89.80
32506;DHT22;18955;51.224;8.482;2022-12-31T00:51:53;7.30;89.90
32506;DHT22;18955;51.224;8.482;2022-12-31T00:54:19;7.30;89.90
32506;DHT22;18955;51.224;8.482;2022-12-31T00:56:45;7.30;90.00
32506;DHT22;18955;51.224;8.482;2022-12-31T00:59:11;7.30;90.00
32506;DHT22;18955;51.224;8.482;2022-12-31T01:01:38;7.30;90.10
32506;DHT22;18955;51.224;8.482;2022-12-31T01:04:14;7.30;90.10
32506;DHT22;18955;51.224;8.482;2022-12-31T01:06:42;7.30;90.10
32506;DHT22;18955;51.224;8.482;2022-12-31T01:09:09;7.30;90.00
32506;DHT22;18955;51.224;8.482;2022-12-31T01:11:36;7.40;90.00
32506;DHT22;18955;51.224;8.482;2022-12-31T01:14:06;7.30;90.00
32506;DHT22;18955;51.224;8.482;2022-12-31T01:16:38;7.30;89.90
32506;DHT22;18955;51.224;8.482;2022-12-31T01:19:07;7.40;90.10
32506;DHT22;18955;51.224;8.482;2022-12-31T01:21:35;7.40;90.20
32506;DHT22;18955;51.224;8.482;2022-12-31T01:24:01;7.40;90.10
32506;DHT22;18955;51.224;8.482;2022-12-31T01:26:28;7.40;89.60
32506;DHT22;18955;51.224;8.482;2022-12-31T01:28:54;7.50;89.70
32506;DHT22;18955;51.224;8.482;2022-12-31T01:31:22;7.40;89.80
32506;DHT22;18955;51.224;8.482;2022-12-31T01:33:50;7.50;89.70
32506;DHT22;18955;51.224;8.482;2022-12-31T01:36:20;7.50;89.90
32506;DHT22;18955;51.224;8.482;2022-12-31T01:38:46;7.50;90.10
32506;DHT22;18955;51.224;8.482;2022-12-31T01:41:16;7.50;90.20
32506;DHT22;18955;51.224;8.482;2022-12-31T01:43:52;7.50;90.20
32506;DHT22;18955;51.224;8.482;2022-12-31T01:49:45;7.50;89.90
32506;DHT22;18955;51.224;8.482;2022-12-31T01:52:27;7.50;89.60
32506;DHT22;18955;51.224;8.482;2022-12-31T01:55:15;7.50;89.70
32506;DHT22;18955;51.224;8.482;2022-12-31T01:57:45;7.50;89.80
32506;DHT22;18955;51.224;8.482;2022-12-31T02:00:12;7.50;89.80
32506;DHT22;18955;51.224;8.482;2022-12-31T02:02:39;7.60;90.00
32506;DHT22;18955;51.224;8.482;2022-12-31T02:05:14;7.60;89.80
32506;DHT22;18955;51.224;8.482;2022-12-31T02:07:43;7.60;89.90
32506;DHT22;18955;51.224;8.482;2022-12-31T02:10:09;7.60;89.40
32506;DHT22;18955;51.224;8.482;2022-12-31T02:12:35;7.70;89.90
32506;DHT22;18955;51.224;8.482;2022-12-31T02:15:02;7.60;90.20
32506;DHT22;18955;51.224;8.482;2022-12-31T02:17:55;7.70;90.10
32506;DHT22;18955;51.224;8.482;2022-12-31T02:31:01;7.70;90.30
32506;DHT22;18955;51.224;8.482;2022-12-31T02:36:14;7.80;90.10
32506;DHT22;18955;51.224;8.482;2022-12-31T02:38:45;7.70;90.40
32506;DHT22;18955;51.224;8.482;2022-12-31T02:41:13;7.80;90.30
32506;DHT22;18955;51.224;8.482;2022-12-31T02:44:00;7.70;90.10
32506;DHT22;18955;51.224;8.482;2022-12-31T02:49:45;7.80;90.20
32506;DHT22;18955;51.224;8.482;2022-12-31T02:52:57;7.80;90.00
32506;DHT22;18955;51.224;8.482;2022-12-31T02:55:44;7.80;89.70
32506;DHT22;18955;51.224;8.482;2022-12-31T03:01:24;7.90;89.60
32506;DHT22;18955;51.224;8.482;2022-12-31T03:04:11;7.90;89.70
32506;DHT22;18955;51.224;8.482;2022-12-31T03:07:00;7.90;90.00
32506;DHT22;18955;51.224;8.482;2022-12-31T03:09:27;7.90;90.00
32506;DHT22;18955;51.224;8.482;2022-12-31T03:11:53;7.90;89.70
32506;DHT22;18955;51.224;8.482;2022-12-31T03:14:38;7.90;89.70
32506;DHT22;18955;51.224;8.482;2022-12-31T03:17:04;7.90;90.20
32506;DHT22;18955;51.224;8.482;2022-12-31T03:19:31;7.90;90.20
32506;DHT22;18955;51.224;8.482;2022-12-31T03:22:15;7.90;90.20
32506;DHT22;18955;51.224;8.482;2022-12-31T03:25:09;8.00;90.10
32506;DHT22;18955;51.224;8.482;2022-12-31T03:27:56;8.00;90.60
32506;DHT22;18955;51.224;8.482;2022-12-31T03:30:23;8.00;90.70
32506;DHT22;18955;51.224;8.482;2022-12-31T03:32:50;8.00;90.80
32506;DHT22;18955;51.224;8.482;2022-12-31T03:35:18;8.10;90.40
32506;DHT22;18955;51.224;8.482;2022-12-31T03:37:46;8.10;90.30
32506;DHT22;18955;51.224;8.482;2022-12-31T03:40:14;8.10;90.40
32506;DHT22;18955;51.224;8.482;2022-12-31T03:42:41;8.10;90.20
32506;DHT22;18955;51.224;8.482;2022-12-31T03:45:08;8.10;90.10
32506;DHT22;18955;51.224;8.482;2022-12-31T03:47:35;8.10;90.10
32506;DHT22;18955;51.224;8.482;2022-12-31T03:50:02;8.10;90.40
32506;DHT22;18955;51.224;8.482;2022-12-31T03:52:28;8.10;90.50
32506;DHT22;18955;51.224;8.482;2022-12-31T03:54:54;8.10;90.40
32506;DHT22;18955;51.224;8.482;2022-12-31T03:57:21;8.20;90.50
32506;DHT22;18955;51.224;8.482;2022-12-31T03:59:48;8.20;90.50
32506;DHT22;18955;51.224;8.482;2022-12-31T04:02:14;8.20;90.60
32506;DHT22;18955;51.224;8.482;2022-12-31T04:04:40;8.20;90.30
32506;DHT22;18955;51.224;8.482;2022-12-31T04:07:06;8.20;90.50
32506;DHT22;18955;51.224;8.482;2022-12-31T04:09:33;8.20;90.30
32506;DHT22;18955;51.224;8.482;2022-12-31T04:11:59;8.20;90.50
32506;DHT22;18955;51.224;8.482;2022-12-31T04:14:25;8.20;90.30
32506;DHT22;18955;51.224;8.482;2022-12-31T04:16:51;8.30;90.30
32506;DHT22;18955;51.224;8.482;2022-12-31T04:19:18;8.30;90.60
32506;DHT22;18955;51.224;8.482;2022-12-31T04:21:44;8.30;90.60
32506;DHT22;18955;51.224;8.482;2022-12-31T04:24:10;8.30;90.50
32506;DHT22;18955;51.224;8.482;2022-12-31T04:26:37;8.30;90.70
32506;DHT22;18955;51.224;8.482;2022-12-31T04:29:03;8.30;90.90
32506;DHT22;18955;51.224;8.482;2022-12-31T04:31:30;8.30;90.80
32506;DHT22;18955;51.224;8.482;2022-12-31T04:33:56;8.30;90.80
32506;DHT22;18955;51.224;8.482;2022-12-31T04:36:22;8.40;90.70
32506;DHT22;18955;51.224;8.482;2022-12-31T04:38:48;8.40;90.70
32506;DHT22;18955;51.224;8.482;2022-12-31T04:41:14;8.40;90.60
32506;DHT22;18955;51.224;8.482;2022-12-31T04:46:15;8.40;90.70
32506;DHT22;18955;51.224;8.482;2022-12-31T04:48:43;8.40;90.60
32506;DHT22;18955;51.224;8.482;2022-12-31T04:51:09;8.40;90.40
32506;DHT22;18955;51.224;8.482;2022-12-31T04:53:35;8.40;90.50
32506;DHT22;18955;51.224;8.482;2022-12-31T04:56:03;8.40;90.30
32506;DHT22;18955;51.224;8.482;2022-12-31T04:58:29;8.50;90.30
32506;DHT22;18955;51.224;8.482;2022-12-31T05:00:55;8.50;90.40
32506;DHT22;18955;51.224;8.482;2022-12-31T05:03:23;8.50;90.60
32506;DHT22;18955;51.224;8.482;2022-12-31T05:05:50;8.50;90.50
32506;DHT22;18955;51.224;8.482;2022-12-31T05:08:16;8.50;90.70
32506;DHT22;18955;51.224;8.482;2022-12-31T05:10:45;8.50;90.40
32506;DHT22;18955;51.224;8.482;2022-12-31T05:13:11;8.50;90.70
32506;DHT22;18955;51.224;8.482;2022-12-31T05:15:38;8.50;90.90
32506;DHT22;18955;51.224;8.482;2022-12-31T05:18:05;8.50;90.80
32506;DHT22;18955;51.224;8.482;2022-12-31T05:20:32;8.50;90.90
32506;DHT22;18955;51.224;8.482;2022-12-31T05:22:58;8.60;91.10
32506;DHT22;18955;51.224;8.482;2022-12-31T05:25:24;8.60;91.00
32506;DHT22;18955;51.224;8.482;2022-12-31T05:27:50;8.60;90.70
32506;DHT22;18955;51.224;8.482;2022-12-31T05:30:17;8.60;91.00
32506;DHT22;18955;51.224;8.482;2022-12-31T05:32:44;8.60;90.70
32506;DHT22;18955;51.224;8.482;2022-12-31T05:35:11;8.60;90.40
32506;DHT22;18955;51.224;8.482;2022-12-31T05:37:38;8.60;90.40
32506;DHT22;18955;51.224;8.482;2022-12-31T05:40:05;8.70;90.40
32506;DHT22;18955;51.224;8.482;2022-12-31T05:42:31;8.70;90.30
32506;DHT22;18955;51.224;8.482;2022-12-31T05:44:58;8.70;90.50
32506;DHT22;18955;51.224;8.482;2022-12-31T05:47:24;8.70;90.70
32506;DHT22;18955;51.224;8.482;2022-12-31T05:49:50;8.70;90.70
32506;DHT22;18955;51.224;8.482;2022-12-31T05:52:17;8.70;90.40
32506;DHT22;18955;51.224;8.482;2022-12-31T05:54:43;8.70;90.50
32506;DHT22;18955;51.224;8.482;2022-12-31T05:57:09;8.70;90.60
32506;DHT22;18955;51.224;8.482;2022-12-31T05:59:36;8.70;90.50
32506;DHT22;18955;51.224;8.482;2022-12-31T06:02:02;8.70;90.60
32506;DHT22;18955;51.224;8.482;2022-12-31T06:04:29;8.70;91.00
32506;DHT22;18955;51.224;8.482;2022-12-31T06:06:55;8.70;91.10
32506;DHT22;18955;51.224;8.482;2022-12-31T06:09:21;8.80;91.00
32506;DHT22;18955;51.224;8.482;2022-12-31T06:11:48;8.70;90.90
32506;DHT22;18955;51.224;8.482;2022-12-31T06:14:14;8.80;90.60
32506;DHT22;18955;51.224;8.482;2022-12-31T06:16:41;8.80;90.70
32506;DHT22;18955;51.224;8.482;2022-12-31T06:19:08;8.80;90.70
32506;DHT22;18955;51.224;8.482;2022-12-31T06:21:34;8.80;90.80
32506;DHT22;18955;51.224;8.482;2022-12-31T06:24:00;8.80;90.70
32506;DHT22;18955;51.224;8.482;2022-12-31T06:26:27;8.80;90.80
32506;DHT22;18955;51.224;8.482;2022-12-31T06:28:53;8.80;90.90
32506;DHT22;18955;51.224;8.482;2022-12-31T06:31:19;8.80;90.60
32506;DHT22;18955;51.224;8.482;2022-12-31T06:33:45;8.90;90.70
32506;DHT22;18955;51.224;8.482;2022-12-31T06:36:13;8.90;90.70
32506;DHT22;18955;51.224;8.482;2022-12-31T06:38:41;8.90;90.80
32506;DHT22;18955;51.224;8.482;2022-12-31T06:41:13;8.90;91.00
32506;DHT22;18955;51.224;8.482;2022-12-31T06:43:40;8.90;90.60
32506;DHT22;18955;51.224;8.482;2022-12-31T06:46:08;8.90;90.70
32506;DHT22;18955;51.224;8.482;2022-12-31T06:48:36;8.90;90.70
32506;DHT22;18955;51.224;8.482;2022-12-31T06:51:05;8.90;90.50
32506;DHT22;18955;51.224;8.482;2022-12-31T06:53:32;8.90;90.80
32506;DHT22;18955;51.224;8.482;2022-12-31T06:56:07;8.90;90.60
32506;DHT22;18955;51.224;8.482;2022-12-31T06:58:34;9.00;90.80
32506;DHT22;18955;51.224;8.482;2022-12-31T07:01:25;9.00;90.70
32506;DHT22;18955;51.224;8.482;2022-12-31T07:12:05;9.00;90.80
32506;DHT22;18955;51.224;8.482;2022-12-31T07:14:58;9.00;90.80
32506;DHT22;18955;51.224;8.482;2022-12-31T07:22:34;9.00;91.00
32506;DHT22;18955;51.224;8.482;2022-12-31T07:25:01;9.00;91.30
32506;DHT22;18955;51.224;8.482;2022-12-31T07:30:19;9.10;90.80
32506;DHT22;18955;51.224;8.482;2022-12-31T07:41:08;9.10;90.90
32506;DHT22;18955;51.224;8.482;2022-12-31T07:48:56;9.20;90.70
32506;DHT22;18955;51.224;8.482;2022-12-31T07:51:23;9.10;90.60
32506;DHT22;18955;51.224;8.482;2022-12-31T07:53:49;9.10;90.70
32506;DHT22;18955;51.224;8.482;2022-12-31T07:56:15;9.10;90.80
32506;DHT22;18955;51.224;8.482;2022-12-31T08:07:35;9.20;90.70
32506;DHT22;18955;51.224;8.482;2022-12-31T08:10:18;9.20;90.80
32506;DHT22;18955;51.224;8.482;2022-12-31T08:12:48;9.20;91.00
32506;DHT22;18955;51.224;8.482;2022-12-31T08:15:16;9.20;91.00
32506;DHT22;18955;51.224;8.482;2022-12-31T08:17:43;9.30;91.00
32506;DHT22;18955;51.224;8.482;2022-12-31T08:20:15;9.30;91.20
32506;DHT22;18955;51.224;8.482;2022-12-31T08:30:21;9.30;91.00
32506;DHT22;18955;51.224;8.482;2022-12-31T08:33:03;9.30;90.90
32506;DHT22;18955;51.224;8.482;2022-12-31T08:35:51;9.30;90.90
32506;DHT22;18955;51.224;8.482;2022-12-31T08:45:53;9.40;91.00
32506;DHT22;18955;51.224;8.482;2022-12-31T08:50:58;9.40;90.90
32506;DHT22;18955;51.224;8.482;2022-12-31T08:53:25;9.40;90.80
32506;DHT22;18955;51.224;8.482;2022-12-31T08:56:06;9.40;90.80
32506;DHT22;18955;51.224;8.482;2022-12-31T08:58:51;9.40;90.80
32506;DHT22;18955;51.224;8.482;2022-12-31T09:01:24;9.40;91.10
32506;DHT22;18955;51.224;8.482;2022-12-31T09:04:10;9.40;90.80
32506;DHT22;18955;51.224;8.482;2022-12-31T09:06:50;9.40;91.00
32506;DHT22;18955;51.224;8.482;2022-12-31T09:12:09;9.40;91.00
32506;DHT22;18955;51.224;8.482;2022-12-31T09:14:44;9.40;90.80
32506;DHT22;18955;51.224;8.482;2022-12-31T09:17:37;9.50;90.70
32506;DHT22;18955;51.224;8.482;2022-12-31T09:20:14;9.50;90.60
32506;DHT22;18955;51.224;8.482;2022-12-31T09:22:41;9.50;90.70
32506;DHT22;18955;51.224;8.482;2022-12-31T09:25:13;9.50;90.80
32506;DHT22;18955;51.224;8.482;2022-12-31T09:27:49;9.50;90.60
32506;DHT22;18955;51.224;8.482;2022-12-31T09:30:17;9.50;90.60
32506;DHT22;18955;51.224;8.482;2022-12-31T09:33:09;9.50;90.50
32506;DHT22;18955;51.224;8.482;2022-12-31T09:36:17;9.50;90.50
32506;DHT22;18955;51.224;8.482;2022-12-31T09:55:47;9.50;90.50
32506;DHT22;18955;51.224;8.482;2022-12-31T10:01:09;9.60;90.50
32506;DHT22;18955;51.224;8.482;2022-12-31T10:07:07;9.60;90.60
32506;DHT22;18955;51.224;8.482;2022-12-31T10:12:30;9.60;90.70
32506;DHT22;18955;51.224;8.482;2022-12-31T10:29:46;9.70;90.40
32506;DHT22;18955;51.224;8.482;2022-12-31T10:35:00;9.70;90.80
32506;DHT22;18955;51.224;8.482;2022-12-31T10:58:44;9.80;90.90
32506;DHT22;18955;51.224;8.482;2022-12-31T11:01:35;9.80;90.60
32506;DHT22;18955;51.224;8.482;2022-12-31T11:18:30;9.80;90.60
32506;DHT22;18955;51.224;8.482;2022-12-31T11:23:48;9.80;90.60
32506;DHT22;18955;51.224;8.482;2022-12-31T11:29:01;9.90;90.90
32506;DHT22;18955;51.224;8.482;2022-12-31T11:39:51;9.90;90.50
32506;DHT22;18955;51.224;8.482;2022-12-31T11:48:03;9.90;90.60
32506;DHT22;18955;51.224;8.482;2022-12-31T11:50:40;9.90;90.70
32506;DHT22;18955;51.224;8.482;2022-12-31T11:58:29;9.90;90.90
32506;DHT22;18955;51.224;8.482;2022-12-31T12:01:11;9.90;90.70
32506;DHT22;18955;51.224;8.482;2022-12-31T12:03:38;9.90;90.60
32506;DHT22;18955;51.224;8.482;2022-12-31T12:06:19;10.00;90.50
32506;DHT22;18955;51.224;8.482;2022-12-31T12:08:48;9.90;90.50
32506;DHT22;18955;51.224;8.482;2022-12-31T12:11:25;9.90;90.40
32506;DHT22;18955;51.224;8.482;2022-12-31T12:13:52;10.00;90.60
32506;DHT22;18955;51.224;8.482;2022-12-31T12:16:20;10.00;90.70
32506;DHT22;18955;51.224;8.482;2022-12-31T12:19:13;10.00;90.50
32506;DHT22;18955;51.224;8.482;2022-12-31T12:21:48;10.00;90.60
32506;DHT22;18955;51.224;8.482;2022-12-31T12:24:25;10.00;90.50
32506;DHT22;18955;51.224;8.482;2022-12-31T12:26:51;10.00;90.50
32506;DHT22;18955;51.224;8.482;2022-12-31T12:29:26;10.00;90.50
32506;DHT22;18955;51.224;8.482;2022-12-31T12:32:00;10.00;90.60
32506;DHT22;18955;51.224;8.482;2022-12-31T12:36:57;10.00;90.70
32506;DHT22;18955;51.224;8.482;2022-12-31T12:39:27;10.10;90.60
32506;DHT22;18955;51.224;8.482;2022-12-31T12:42:05;10.10;90.50
32506;DHT22;18955;51.224;8.482;2022-12-31T12:44:32;10.10;90.50
32506;DHT22;18955;51.224;8.482;2022-12-31T12:47:02;10.10;90.60
32506;DHT22;18955;51.224;8.482;2022-12-31T12:49:55;10.10;90.60
32506;DHT22;18955;51.224;8.482;2022-12-31T13:23:20;10.20;90.50
32506;DHT22;18955;51.224;8.482;2022-12-31T13:28:19;10.20;90.50
32506;DHT22;18955;51.224;8.482;2022-12-31T13:31:00;10.20;90.50
32506;DHT22;18955;51.224;8.482;2022-12-31T13:33:32;10.20;90.50
32506;DHT22;18955;51.224;8.482;2022-12-31T13:36:04;10.20;90.50
32506;DHT22;18955;51.224;8.482;2022-12-31T13:38:41;10.20;90.60
32506;DHT22;18955;51.224;8.482;2022-12-31T13:41:22;10.20;90.50
32506;DHT22;18955;51.224;8.482;2022-12-31T13:49:41;10.30;90.40
32506;DHT22;18955;51.224;8.482;2022-12-31T13:55:20;10.30;90.50
32506;DHT22;18955;51.224;8.482;2022-12-31T14:00:30;10.30;90.60
32506;DHT22;18955;51.224;8.482;2022-12-31T14:05:54;10.30;90.50
32506;DHT22;18955;51.224;8.482;2022-12-31T14:08:21;10.30;90.50
32506;DHT22;18955;51.224;8.482;2022-12-31T14:10:54;10.30;90.70
32506;DHT22;18955;51.224;8.482;2022-12-31T14:21:46;10.30;90.50
32506;DHT22;18955;51.224;8.482;2022-12-31T14:24:24;10.30;90.60
32506;DHT22;18955;51.224;8.482;2022-12-31T14:26:57;10.40;90.70
32506;DHT22;18955;51.224;8.482;2022-12-31T14:29:37;10.30;90.60
32506;DHT22;18955;51.224;8.482;2022-12-31T14:32:44;10.40;90.50
32506;DHT22;18955;51.224;8.482;2022-12-31T14:41:23;10.40;90.50
32506;DHT22;18955;51.224;8.482;2022-12-31T14:46:58;10.40;90.40
32506;DHT22;18955;51.224;8.482;2022-12-31T14:49:40;10.40;90.40
32506;DHT22;18955;51.224;8.482;2022-12-31T14:52:21;10.40;90.50
32506;DHT22;18955;51.224;8.482;2022-12-31T14:57:38;10.40;90.40
32506;DHT22;18955;51.224;8.482;2022-12-31T15:03:00;10.40;90.40
32506;DHT22;18955;51.224;8.482;2022-12-31T15:05:35;10.40;90.40
32506;DHT22;18955;51.224;8.482;2022-12-31T15:23:56;10.50;90.30
32506;DHT22;18955;51.224;8.482;2022-12-31T15:26:24;10.40;90.40
32506;DHT22;18955;51.224;8.482;2022-12-31T15:29:17;10.50;90.70
32506;DHT22;18955;51.224;8.482;2022-12-31T15:31:48;10.40;90.30
32506;DHT22;18955;51.224;8.482;2022-12-31T15:36:55;10.40;90.30
32506;DHT22;18955;51.224;8.482;2022-12-31T15:41:58;10.40;90.40
32506;DHT22;18955;51.224;8.482;2022-12-31T15:44:36;10.40;90.40
32506;DHT22;18955;51.224;8.482;2022-12-31T15:47:28;10.40;90.30
32506;DHT22;18955;51.224;8.482;2022-12-31T15:50:30;10.40;90.30
32506;DHT22;18955;51.224;8.482;2022-12-31T15:52:53;10.50;90.40
32506;DHT22;18955;51.224;8.482;2022-12-31T15:55:32;10.50;90.40
32506;DHT22;18955;51.224;8.482;2022-12-31T15:58:04;10.50;90.40
32506;DHT22;18955;51.224;8.482;2022-12-31T16:00:59;10.50;90.40
32506;DHT22;18955;51.224;8.482;2022-12-31T16:03:28;10.40;90.40
32506;DHT22;18955;51.224;8.482;2022-12-31T16:05:59;10.50;90.40
32506;DHT22;18955;51.224;8.482;2022-12-31T16:08:30;10.40;90.40
32506;DHT22;18955;51.224;8.482;2022-12-31T16:10:57;10.40;90.40
32506;DHT22;18955;51.224;8.482;2022-12-31T16:13:24;10.40;90.40
32506;DHT22;18955;51.224;8.482;2022-12-31T16:15:59;10.40;90.40
32506;DHT22;18955;51.224;8.482;2022-12-31T16:18:39;10.50;90.30
32506;DHT22;18955;51.224;8.482;2022-12-31T16:21:31;10.50;90.40
32506;DHT22;18955;51.224;8.482;2022-12-31T16:24:04;10.50;90.40
32506;DHT22;18955;51.224;8.482;2022-12-31T16:28:59;10.40;90.40
32506;DHT22;18955;51.224;8.482;2022-12-31T16:31:29;10.50;90.40
32506;DHT22;18955;51.224;8.482;2022-12-31T16:34:09;10.50;90.40
32506;DHT22;18955;51.224;8.482;2022-12-31T16:36:37;10.40;90.40
32506;DHT22;18955;51.224;8.482;2022-12-31T16:41:51;10.40;90.40
32506;DHT22;18955;51.224;8.482;2022-12-31T16:44:25;10.40;90.40
32506;DHT22;18955;51.224;8.482;2022-12-31T16:46:54;10.40;90.50
32506;DHT22;18955;51.224;8.482;2022-12-31T16:49:24;10.40;90.40
32506;DHT22;18955;51.224;8.482;2022-12-31T16:51:51;10.40;90.40
32506;DHT22;18955;51.224;8.482;2022-12-31T16:54:31;10.50;90.50
32506;DHT22;18955;51.224;8.482;2022-12-31T16:56:59;10.50;90.50
32506;DHT22;18955;51.224;8.482;2022-12-31T16:59:39;10.40;90.40
32506;DHT22;18955;51.224;8.482;2022-12-31T17:02:17;10.40;90.50
32506;DHT22;18955;51.224;8.482;2022-12-31T17:04:49;10.40;90.50
32506;DHT22;18955;51.224;8.482;2022-12-31T17:12:40;10.40;90.40
32506;DHT22;18955;51.224;8.482;2022-12-31T17:15:18;10.40;90.50
32506;DHT22;18955;51.224;8.482;2022-12-31T17:17:44;10.40;90.40
32506;DHT22;18955;51.224;8.482;2022-12-31T17:20:24;10.40;90.30
32506;DHT22;18955;51.224;8.482;2022-12-31T17:22:53;10.40;90.40
32506;DHT22;18955;51.224;8.482;2022-12-31T17:25:29;10.40;90.50
32506;DHT22;18955;51.224;8.482;2022-12-31T17:28:02;10.40;90.40
32506;DHT22;18955;51.224;8.482;2022-12-31T17:35:48;10.40;90.40
32506;DHT22;18955;51.224;8.482;2022-12-31T17:43:21;10.40;90.40
32506;DHT22;18955;51.224;8.482;2022-12-31T17:45:50;10.40;90.30
32506;DHT22;18955;51.224;8.482;2022-12-31T17:48:18;10.40;90.30
32506;DHT22;18955;51.224;8.482;2022-12-31T17:53:12;10.40;90.30
32506;DHT22;18955;51.224;8.482;2022-12-31T17:55:39;10.40;90.40
32506;DHT22;18955;51.224;8.482;2022-12-31T17:58:16;10.40;90.40
32506;DHT22;18955;51.224;8.482;2022-12-31T18:00:43;10.40;90.30
32506;DHT22;18955;51.224;8.482;2022-12-31T18:03:09;10.40;90.30
32506;DHT22;18955;51.224;8.482;2022-12-31T18:05:36;10.40;90.30
32506;DHT22;18955;51.224;8.482;2022-12-31T18:08:02;10.40;90.30
32506;DHT22;18955;51.224;8.482;2022-12-31T18:10:32;10.40;90.30
32506;DHT22;18955;51.224;8.482;2022-12-31T18:13:06;10.30;90.20
32506;DHT22;18955;51.224;8.482;2022-12-31T18:15:35;10.30;90.30
32506;DHT22;18955;51.224;8.482;2022-12-31T18:20:44;10.30;90.20
32506;DHT22;18955;51.224;8.482;2022-12-31T18:26:02;10.30;90.30
32506;DHT22;18955;51.224;8.482;2022-12-31T18:28:28;10.30;90.20
32506;DHT22;18955;51.224;8.482;2022-12-31T18:30:55;10.30;90.30
32506;DHT22;18955;51.224;8.482;2022-12-31T18:33:22;10.30;90.20
32506;DHT22;18955;51.224;8.482;2022-12-31T18:35:51;10.30;90.20
32506;DHT22;18955;51.224;8.482;2022-12-31T18:38:19;10.30;90.30
32506;DHT22;18955;51.224;8.482;2022-12-31T18:40:54;10.30;90.30
32506;DHT22;18955;51.224;8.482;2022-12-31T18:43:22;10.30;90.30
32506;DHT22;18955;51.224;8.482;2022-12-31T18:45:49;10.30;90.30
32506;DHT22;18955;51.224;8.482;2022-12-31T18:48:16;10.30;90.30
32506;DHT22;18955;51.224;8.482;2022-12-31T18:50:43;10.30;90.30
32506;DHT22;18955;51.224;8.482;2022-12-31T18:53:18;10.30;90.20
32506;DHT22;18955;51.224;8.482;2022-12-31T18:55:50;10.30;90.30
32506;DHT22;18955;51.224;8.482;2022-12-31T18:58:17;10.30;90.30
32506;DHT22;18955;51.224;8.482;2022-12-31T19:00:44;10.30;90.20
32506;DHT22;18955;51.224;8.482;2022-12-31T19:03:15;10.30;90.20
32506;DHT22;18955;51.224;8.482;2022-12-31T19:05:43;10.30;90.20
32506;DHT22;18955;51.224;8.482;2022-12-31T19:08:10;10.30;90.20
32506;DHT22;18955;51.224;8.482;2022-12-31T19:10:36;10.20;90.20
32506;DHT22;18955;51.224;8.482;2022-12-31T19:13:03;10.20;90.20
32506;DHT22;18955;51.224;8.482;2022-12-31T19:15:32;10.20;90.20
32506;DHT22;18955;51.224;8.482;2022-12-31T19:17:59;10.20;90.20
32506;DHT22;18955;51.224;8.482;2022-12-31T19:20:26;10.20;90.20
32506;DHT22;18955;51.224;8.482;2022-12-31T19:22:53;10.20;90.20
32506;DHT22;18955;51.224;8.482;2022-12-31T19:25:21;10.20;90.10
32506;DHT22;18955;51.224;8.482;2022-12-31T19:27:48;10.20;90.10
32506;DHT22;18955;51.224;8.482;2022-12-31T19:30:23;10.20;90.10
32506;DHT22;18955;51.224;8.482;2022-12-31T19:32:49;10.20;90.20
32506;DHT22;18955;51.224;8.482;2022-12-31T19:35:16;10.20;90.10
32506;DHT22;18955;51.224;8.482;2022-12-31T19:37:43;10.20;90.10
32506;DHT22;18955;51.224;8.482;2022-12-31T19:42:48;10.20;90.10
32506;DHT22;18955;51.224;8.482;2022-12-31T19:45:16;10.20;90.10
32506;DHT22;18955;51.224;8.482;2022-12-31T19:47:43;10.20;90.20
32506;DHT22;18955;51.224;8.482;2022-12-31T19:50:10;10.20;90.10
32506;DHT22;18955;51.224;8.482;2022-12-31T19:52:36;10.20;90.10
32506;DHT22;18955;51.224;8.482;2022-12-31T19:55:03;10.20;90.10
32506;DHT22;18955;51.224;8.482;2022-12-31T19:57:29;10.20;90.10
32506;DHT22;18955;51.224;8.482;2022-12-31T19:59:55;10.20;90.10
32506;DHT22;18955;51.224;8.482;2022-12-31T20:02:21;10.20;90.10
32506;DHT22;18955;51.224;8.482;2022-12-31T20:04:48;10.20;90.10
32506;DHT22;18955;51.224;8.482;2022-12-31T20:07:14;10.10;90.00
32506;DHT22;18955;51.224;8.482;2022-12-31T20:09:40;10.10;90.10
32506;DHT22;18955;51.224;8.482;2022-12-31T20:12:06;10.10;90.00
32506;DHT22;18955;51.224;8.482;2022-12-31T20:14:33;10.10;90.10
32506;DHT22;18955;51.224;8.482;2022-12-31T20:16:59;10.10;90.00
32506;DHT22;18955;51.224;8.482;2022-12-31T20:19:25;10.10;90.00
32506;DHT22;18955;51.224;8.482;2022-12-31T20:21:51;10.10;90.00
32506;DHT22;18955;51.224;8.482;2022-12-31T20:24:18;10.10;90.00
32506;DHT22;18955;51.224;8.482;2022-12-31T20:26:44;10.10;90.00
32506;DHT22;18955;51.224;8.482;2022-12-31T20:29:10;10.10;90.00
32506;DHT22;18955;51.224;8.482;2022-12-31T20:31:36;10.10;90.00
32506;DHT22;18955;51.224;8.482;2022-12-31T20:34:04;10.10;90.00
32506;DHT22;18955;51.224;8.482;2022-12-31T20:36:30;10.10;90.00
32506;DHT22;18955;51.224;8.482;2022-12-31T20:38:57;10.10;90.00
32506;DHT22;18955;51.224;8.482;2022-12-31T20:41:23;10.10;90.00
32506;DHT22;18955;51.224;8.482;2022-12-31T20:43:51;10.10;90.00
32506;DHT22;18955;51.224;8.482;2022-12-31T20:46:22;10.10;90.00
32506;DHT22;18955;51.224;8.482;2022-12-31T20:48:51;10.00;90.00
32506;DHT22;18955;51.224;8.482;2022-12-31T20:51:19;10.00;90.00
32506;DHT22;18955;51.224;8.482;2022-12-31T20:53:47;10.10;90.00
32506;DHT22;18955;51.224;8.482;2022-12-31T20:56:14;10.00;90.00
32506;DHT22;18955;51.224;8.482;2022-12-31T20:58:41;10.10;90.00
32506;DHT22;18955;51.224;8.482;2022-12-31T21:01:09;10.00;90.00
32506;DHT22;18955;51.224;8.482;2022-12-31T21:03:37;10.00;90.00
32506;DHT22;18955;51.224;8.482;2022-12-31T21:06:04;10.00;89.90
32506;DHT22;18955;51.224;8.482;2022-12-31T21:08:30;10.00;89.90
32506;DHT22;18955;51.224;8.482;2022-12-31T21:10:56;10.00;89.90
32506;DHT22;18955;51.224;8.482;2022-12-31T21:13:23;10.00;89.90
32506;DHT22;18955;51.224;8.482;2022-12-31T21:15:51;10.00;89.90